createdAt,value
2018-07-01T00:00:24.538Z,101147.34
2018-07-01T00:02:52.833Z,101150.73
2018-07-01T00:05:20.936Z,101148.50
2018-07-01T00:07:49.223Z,101146.52
2018-07-01T00:10:17.513Z,101148.09
2018-07-01T00:12:45.727Z,101147.47
2018-07-01T00:15:13.894Z,101149.34
2018-07-01T00:17:42.150Z,101146.63
2018-07-01T00:20:10.346Z,101149.57
2018-07-01T00:22:39.225Z,101148.64
2018-07-01T00:25:07.811Z,101148.00
2018-07-01T00:27:35.997Z,101160.30
2018-07-01T00:30:05.289Z,101156.27
2018-07-01T00:32:33.523Z,101157.87
2018-07-01T00:35:02.049Z,101148.64
2018-07-01T00:37:30.202Z,101149.66
2018-07-01T00:39:58.655Z,101153.62
2018-07-01T00:42:27.001Z,101162.11
2018-07-01T00:44:55.765Z,101155.59
2018-07-01T00:47:23.933Z,101151.02
2018-07-01T00:49:52.215Z,101154.36
2018-07-01T00:52:20.357Z,101156.08
2018-07-01T00:54:48.752Z,101154.00
2018-07-01T00:57:17.422Z,101148.59
2018-07-01T00:59:45.558Z,101147.03
2018-07-01T01:02:13.794Z,101141.30
2018-07-01T01:04:42.177Z,101139.83
2018-07-01T01:07:10.406Z,101137.13
2018-07-01T01:09:39.514Z,101145.05
2018-07-01T01:12:08.047Z,101141.16
2018-07-01T01:14:36.147Z,101141.41
2018-07-01T01:17:09.668Z,101141.33
2018-07-01T01:19:38.127Z,101141.41
2018-07-01T01:22:06.271Z,101145.64
2018-07-01T01:24:34.426Z,101143.48
2018-07-01T01:27:02.685Z,101145.64
2018-07-01T01:29:30.877Z,101150.66
2018-07-01T01:31:59.270Z,101148.39
2018-07-01T01:34:27.790Z,101157.10
2018-07-01T01:36:55.974Z,101155.06
2018-07-01T01:39:30.018Z,101156.22
2018-07-01T01:42:34.445Z,101164.11
2018-07-01T01:45:07.843Z,101158.66
2018-07-01T01:47:39.921Z,101165.98
2018-07-01T01:50:14.743Z,101170.30
2018-07-01T01:52:47.367Z,101170.36
2018-07-01T01:55:22.619Z,101165.28
2018-07-01T01:57:56.889Z,101171.66
2018-07-01T02:00:33.240Z,101171.66
2018-07-01T02:03:07.118Z,101168.08
2018-07-01T02:05:46.034Z,101161.38
2018-07-01T02:08:22.996Z,101165.69
2018-07-01T02:10:51.199Z,101169.43
2018-07-01T02:13:19.445Z,101161.45
2018-07-01T02:15:52.465Z,101170.70
2018-07-01T02:18:20.849Z,101168.38
2018-07-01T02:20:49.421Z,101162.59
2018-07-01T02:23:23.387Z,101164.86
2018-07-01T02:25:51.645Z,101160.20
2018-07-01T02:28:20.427Z,101158.72
2018-07-01T02:30:48.963Z,101178.42
2018-07-01T02:33:17.064Z,101171.52
2018-07-01T02:35:45.847Z,101168.64
2018-07-01T02:38:13.920Z,101168.59
2018-07-01T02:40:42.303Z,101179.19
2018-07-01T02:43:10.499Z,101176.99
2018-07-01T02:45:38.755Z,101177.90
2018-07-01T02:48:07.434Z,101176.73
2018-07-01T02:50:35.617Z,101174.69
2018-07-01T02:53:04.094Z,101177.06
2018-07-01T02:55:32.302Z,101179.13
2018-07-01T02:58:00.517Z,101176.55
2018-07-01T03:00:29.206Z,101172.64
2018-07-01T03:02:57.338Z,101163.16
2018-07-01T03:05:25.780Z,101168.79
2018-07-01T03:07:54.047Z,101169.40
2018-07-01T03:10:22.637Z,101176.48
2018-07-01T03:12:51.034Z,101166.86
2018-07-01T03:15:19.220Z,101167.09
2018-07-01T03:17:47.482Z,101167.23
2018-07-01T03:20:16.008Z,101173.29
2018-07-01T03:22:44.162Z,101177.72
2018-07-01T03:25:12.357Z,101177.98
2018-07-01T03:27:40.600Z,101172.91
2018-07-01T03:30:09.167Z,101178.93
2018-07-01T03:32:38.088Z,101177.66
2018-07-01T03:35:06.310Z,101171.62
2018-07-01T03:37:34.426Z,101172.44
2018-07-01T03:40:02.636Z,101175.98
2018-07-01T03:42:30.805Z,101177.86
2018-07-01T03:44:59.236Z,101179.25
2018-07-01T03:47:27.402Z,101172.83
2018-07-01T03:49:55.639Z,101176.05
2018-07-01T03:52:23.776Z,101172.71
2018-07-01T03:54:52.198Z,101180.30
2018-07-01T03:57:28.008Z,101177.99
2018-07-01T03:59:56.185Z,101178.05
2018-07-01T04:02:24.812Z,101172.64
2018-07-01T04:04:52.934Z,101180.14
2018-07-01T04:07:21.289Z,101176.39
2018-07-01T04:09:49.454Z,101180.22
2018-07-01T04:12:17.803Z,101185.20
2018-07-01T04:14:45.939Z,101189.41
2018-07-01T04:17:14.444Z,101187.86
2018-07-01T04:19:43.022Z,101188.10
2018-07-01T04:22:11.181Z,101186.34
2018-07-01T04:24:39.406Z,101186.89
2018-07-01T04:27:07.694Z,101191.36
2018-07-01T04:29:35.866Z,101188.94
2018-07-01T04:32:04.208Z,101185.82
2018-07-01T04:34:32.302Z,101173.23
2018-07-01T04:37:00.512Z,101171.25
2018-07-01T04:39:28.737Z,101178.21
2018-07-01T04:41:57.224Z,101185.94
2018-07-01T04:44:25.450Z,101183.20
2018-07-01T04:46:53.600Z,101172.17
2018-07-01T04:49:21.948Z,101183.95
2018-07-01T04:51:50.031Z,101180.81
2018-07-01T04:54:18.247Z,101180.84
2018-07-01T04:56:47.335Z,101179.39
2018-07-01T04:59:16.434Z,101177.52
2018-07-01T05:01:44.569Z,101185.27
2018-07-01T05:04:12.716Z,101186.37
2018-07-01T05:06:41.123Z,101195.36
2018-07-01T05:09:11.848Z,101200.06
2018-07-01T05:11:41.102Z,101198.48
2018-07-01T05:14:09.250Z,101199.85
2018-07-01T05:16:38.654Z,101195.66
2018-07-01T05:19:07.311Z,101201.91
2018-07-01T05:21:35.435Z,101198.52
2018-07-01T05:24:03.818Z,101199.54
2018-07-01T05:26:32.105Z,101200.30
2018-07-01T05:29:00.229Z,101204.69
2018-07-01T05:31:28.504Z,101208.85
2018-07-01T05:33:57.221Z,101209.75
2018-07-01T05:36:25.513Z,101212.58
2018-07-01T05:38:53.841Z,101214.36
2018-07-01T05:41:22.227Z,101213.11
2018-07-01T05:43:50.363Z,101206.56
2018-07-01T05:46:18.531Z,101209.66
2018-07-01T05:48:46.723Z,101212.14
2018-07-01T05:51:15.017Z,101213.21
2018-07-01T05:53:43.227Z,101215.82
2018-07-01T05:56:11.517Z,101216.02
2018-07-01T05:58:40.009Z,101225.62
2018-07-01T06:01:08.160Z,101219.05
2018-07-01T06:03:36.370Z,101225.11
2018-07-01T06:06:04.600Z,101225.11
2018-07-01T06:08:32.813Z,101225.32
2018-07-01T06:11:01.260Z,101226.16
2018-07-01T06:13:30.607Z,101227.05
2018-07-01T06:15:58.888Z,101219.73
2018-07-01T06:18:27.307Z,101225.95
2018-07-01T06:20:56.105Z,101230.92
2018-07-01T06:23:24.290Z,101234.80
2018-07-01T06:25:52.441Z,101242.12
2018-07-01T06:28:20.940Z,101242.36
2018-07-01T06:30:49.303Z,101244.55
2018-07-01T06:33:17.455Z,101247.91
2018-07-01T06:35:45.673Z,101247.53
2018-07-01T06:38:14.618Z,101246.61
2018-07-01T06:40:42.821Z,101251.07
2018-07-01T06:43:11.526Z,101257.58
2018-07-01T06:45:39.676Z,101253.11
2018-07-01T06:48:08.012Z,101244.88
2018-07-01T06:50:36.335Z,101244.98
2018-07-01T06:53:04.792Z,101246.48
2018-07-01T06:55:32.988Z,101242.75
2018-07-01T06:58:01.538Z,101247.88
2018-07-01T07:00:30.673Z,101243.35
2018-07-01T07:02:58.948Z,101249.98
2018-07-01T07:05:27.194Z,101244.98
2018-07-01T07:07:55.530Z,101240.06
2018-07-01T07:10:23.869Z,101240.06
2018-07-01T07:12:52.135Z,101236.91
2018-07-01T07:15:20.670Z,101240.96
2018-07-01T07:18:24.772Z,101235.88
2018-07-01T07:20:53.010Z,101237.95
2018-07-01T07:23:21.224Z,101230.78
2018-07-01T07:25:49.485Z,101221.33
2018-07-01T07:28:17.930Z,101234.36
2018-07-01T07:30:46.410Z,101233.26
2018-07-01T07:33:15.248Z,101233.83
2018-07-01T07:35:43.581Z,101232.77
2018-07-01T07:38:11.977Z,101229.90
2018-07-01T07:40:40.858Z,101231.41
2018-07-01T07:43:09.846Z,101231.17
2018-07-01T07:45:38.008Z,101230.91
2018-07-01T07:48:09.292Z,101231.02
2018-07-01T07:50:37.398Z,101229.98
2018-07-01T07:53:05.647Z,101234.50
2018-07-01T07:55:33.843Z,101233.37
2018-07-01T07:58:02.476Z,101244.70
2018-07-01T08:00:30.958Z,101242.88
2018-07-01T08:02:59.287Z,101251.44
2018-07-01T08:05:28.026Z,101247.64
2018-07-01T08:07:56.192Z,101248.18
2018-07-01T08:10:24.475Z,101248.50
2018-07-01T08:12:54.130Z,101244.19
2018-07-01T08:15:22.852Z,101256.64
2018-07-01T08:17:51.117Z,101250.32
2018-07-01T08:20:19.381Z,101252.84
2018-07-01T08:22:47.733Z,101253.90
2018-07-01T08:25:16.024Z,101253.41
2018-07-01T08:27:44.996Z,101249.63
2018-07-01T08:30:13.165Z,101243.30
2018-07-01T08:32:41.339Z,101247.25
2018-07-01T08:35:09.622Z,101248.67
2018-07-01T08:37:37.869Z,101251.77
2018-07-01T08:40:06.367Z,101254.67
2018-07-01T08:42:35.351Z,101256.41
2018-07-01T08:45:05.423Z,101256.30
2018-07-01T08:47:34.249Z,101259.66
2018-07-01T08:50:02.596Z,101253.58
2018-07-01T08:52:30.988Z,101254.80
2018-07-01T08:54:59.389Z,101239.91
2018-07-01T08:57:28.023Z,101245.34
2018-07-01T08:59:56.145Z,101244.66
2018-07-01T09:02:24.562Z,101242.45
2018-07-01T09:04:52.841Z,101248.05
2018-07-01T09:07:21.651Z,101248.80
2018-07-01T09:09:50.469Z,101258.92
2018-07-01T09:12:19.118Z,101252.28
2018-07-01T09:14:47.924Z,101242.45
2018-07-01T09:17:16.683Z,101247.39
2018-07-01T09:19:45.712Z,101243.87
2018-07-01T09:22:13.901Z,101248.01
2018-07-01T09:24:42.915Z,101248.78
2018-07-01T09:27:11.400Z,101246.21
2018-07-01T09:29:48.203Z,101251.38
2018-07-01T09:32:16.565Z,101249.69
2018-07-01T09:34:45.701Z,101247.73
2018-07-01T09:37:14.526Z,101245.83
2018-07-01T09:39:43.678Z,101238.86
2018-07-01T09:42:12.295Z,101243.87
2018-07-01T09:44:40.438Z,101250.01
2018-07-01T09:47:09.054Z,101248.29
2018-07-01T09:49:37.279Z,101248.17
2018-07-01T09:52:05.814Z,101242.64
2018-07-01T09:54:34.797Z,101238.14
2018-07-01T09:57:03.344Z,101255.84
2018-07-01T09:59:31.837Z,101244.66
2018-07-01T10:02:00.841Z,101241.84
2018-07-01T10:04:29.242Z,101242.59
2018-07-01T10:06:57.627Z,101246.84
2018-07-01T10:09:26.179Z,101243.96
2018-07-01T10:11:54.605Z,101243.45
2018-07-01T10:14:22.855Z,101240.53
2018-07-01T10:16:51.318Z,101239.05
2018-07-01T10:19:19.457Z,101237.48
2018-07-01T10:21:48.049Z,101245.20
2018-07-01T10:24:16.375Z,101239.80
2018-07-01T10:26:45.666Z,101228.53
2018-07-01T10:29:14.601Z,101228.61
2018-07-01T10:31:44.220Z,101235.47
2018-07-01T10:34:13.129Z,101234.28
2018-07-01T10:36:41.356Z,101234.31
2018-07-01T10:39:17.498Z,101228.65
2018-07-01T10:41:46.873Z,101237.66
2018-07-01T10:44:15.281Z,101234.91
2018-07-01T10:46:48.016Z,101249.34
2018-07-01T10:49:16.647Z,101241.09
2018-07-01T10:51:45.195Z,101248.78
2018-07-01T10:54:13.731Z,101248.27
2018-07-01T10:56:42.551Z,101251.47
2018-07-01T10:59:11.054Z,101251.30
2018-07-01T11:01:39.747Z,101242.90
2018-07-01T11:04:08.834Z,101239.97
2018-07-01T11:06:37.622Z,101245.52
2018-07-01T11:09:09.661Z,101244.63
2018-07-01T11:11:37.983Z,101242.06
2018-07-01T11:14:06.297Z,101247.14
2018-07-01T11:16:34.779Z,101245.18
2018-07-01T11:19:03.201Z,101244.63
2018-07-01T11:21:31.667Z,101235.54
2018-07-01T11:24:00.437Z,101236.14
2018-07-01T11:26:28.739Z,101246.22
2018-07-01T11:28:57.364Z,101232.06
2018-07-01T11:31:25.769Z,101235.41
2018-07-01T11:33:54.881Z,101221.53
2018-07-01T11:36:23.522Z,101228.81
2018-07-01T11:38:51.704Z,101211.59
2018-07-01T11:41:20.283Z,101229.01
2018-07-01T11:43:48.441Z,101235.39
2018-07-01T11:46:16.691Z,101226.33
2018-07-01T11:48:45.229Z,101235.36
2018-07-01T11:51:13.788Z,101233.29
2018-07-01T11:53:42.584Z,101227.14
2018-07-01T11:56:11.613Z,101231.84
2018-07-01T11:58:39.880Z,101225.78
2018-07-01T12:01:08.124Z,101222.77
2018-07-01T12:03:36.443Z,101234.09
2018-07-01T12:06:04.590Z,101221.36
2018-07-01T12:08:33.183Z,101225.28
2018-07-01T12:11:01.444Z,101226.98
2018-07-01T12:13:29.698Z,101223.64
2018-07-01T12:15:57.925Z,101231.55
2018-07-01T12:18:26.275Z,101226.86
2018-07-01T12:20:55.786Z,101233.56
2018-07-01T12:23:24.265Z,101217.88
2018-07-01T12:25:52.968Z,101218.66
2018-07-01T12:28:21.521Z,101222.28
2018-07-01T12:30:49.997Z,101221.92
2018-07-01T12:33:18.376Z,101219.87
2018-07-01T12:35:46.684Z,101207.51
2018-07-01T12:38:15.005Z,101212.20
2018-07-01T12:40:43.710Z,101219.42
2018-07-01T12:43:11.985Z,101212.30
2018-07-01T12:45:47.014Z,101201.33
2018-07-01T12:48:15.451Z,101212.38
2018-07-01T12:50:44.023Z,101208.15
2018-07-01T12:53:12.226Z,101203.91
2018-07-01T12:55:41.884Z,101204.09
2018-07-01T12:58:10.118Z,101199.39
2018-07-01T13:00:38.401Z,101196.42
2018-07-01T13:03:06.838Z,101190.03
2018-07-01T13:05:35.188Z,101198.34
2018-07-01T13:08:03.881Z,101197.47
2018-07-01T13:10:32.382Z,101196.98
2018-07-01T13:13:01.372Z,101181.27
2018-07-01T13:15:30.268Z,101201.37
2018-07-01T13:17:58.593Z,101199.39
2018-07-01T13:20:26.875Z,101196.80
2018-07-01T13:22:55.176Z,101183.70
2018-07-01T13:25:23.538Z,101195.95
2018-07-01T13:27:51.795Z,101186.72
2018-07-01T13:30:20.391Z,101184.67
2018-07-01T13:32:48.859Z,101180.94
2018-07-01T13:35:17.167Z,101170.27
2018-07-01T13:37:45.450Z,101178.32
2018-07-01T13:40:13.592Z,101174.68
2018-07-01T13:42:42.559Z,101180.39
2018-07-01T13:45:10.782Z,101170.68
2018-07-01T13:47:39.397Z,101171.11
2018-07-01T13:50:07.714Z,101176.60
2018-07-01T13:52:36.290Z,101182.98
2018-07-01T13:55:04.989Z,101183.53
2018-07-01T13:57:33.358Z,101180.74
2018-07-01T14:00:01.765Z,101170.77
2018-07-01T14:02:30.386Z,101175.30
2018-07-01T14:04:59.547Z,101183.57
2018-07-01T14:07:28.862Z,101178.30
2018-07-01T14:09:57.111Z,101179.95
2018-07-01T14:12:26.623Z,101174.47
2018-07-01T14:14:54.944Z,101171.14
2018-07-01T14:17:23.151Z,101170.27
2018-07-01T14:19:51.567Z,101175.31
2018-07-01T14:22:19.998Z,101173.59
2018-07-01T14:24:48.106Z,101174.19
2018-07-01T14:27:16.545Z,101160.05
2018-07-01T14:29:45.642Z,101158.18
2018-07-01T14:32:13.787Z,101153.80
2018-07-01T14:34:42.043Z,101161.48
2018-07-01T14:37:10.208Z,101150.71
2018-07-01T14:39:38.502Z,101157.10
2018-07-01T14:42:06.672Z,101164.78
2018-07-01T14:44:34.965Z,101155.97
2018-07-01T14:47:03.166Z,101160.36
2018-07-01T14:49:31.277Z,101154.58
2018-07-01T14:51:59.564Z,101146.02
2018-07-01T14:54:27.747Z,101156.03
2018-07-01T14:56:56.003Z,101158.75
2018-07-01T14:59:24.277Z,101149.08
2018-07-01T15:01:52.407Z,101148.86
2018-07-01T15:04:20.660Z,101145.00
2018-07-01T15:06:48.904Z,101144.97
2018-07-01T15:09:17.071Z,101154.05
2018-07-01T15:11:45.250Z,101151.50
2018-07-01T15:14:13.430Z,101148.23
2018-07-01T15:16:41.626Z,101150.47
2018-07-01T15:19:09.789Z,101141.66
2018-07-01T15:21:37.971Z,101145.78
2018-07-01T15:24:06.234Z,101140.00
2018-07-01T15:26:34.616Z,101138.55
2018-07-01T15:29:04.383Z,101142.20
2018-07-01T15:31:32.584Z,101137.81
2018-07-01T15:34:00.822Z,101135.41
2018-07-01T15:36:29.068Z,101141.16
2018-07-01T15:38:57.416Z,101138.98
2018-07-01T15:41:25.713Z,101138.89
2018-07-01T15:43:54.002Z,101140.59
2018-07-01T15:46:22.267Z,101133.13
2018-07-01T15:48:50.863Z,101132.08
2018-07-01T15:51:19.096Z,101132.14
2018-07-01T15:53:47.339Z,101131.03
2018-07-01T15:56:15.551Z,101127.17
2018-07-01T15:58:43.728Z,101113.94
2018-07-01T16:01:11.886Z,101125.41
2018-07-01T16:03:40.055Z,101120.50
2018-07-01T16:06:08.289Z,101128.18
2018-07-01T16:08:37.377Z,101131.98
2018-07-01T16:11:05.627Z,101126.52
2018-07-01T16:13:33.866Z,101130.89
2018-07-01T16:16:02.055Z,101133.56
2018-07-01T16:18:30.946Z,101131.02
2018-07-01T16:20:59.221Z,101131.96
2018-07-01T16:23:27.417Z,101121.63
2018-07-01T16:28:12.540Z,101130.45
2018-07-01T16:30:40.787Z,101124.27
2018-07-01T16:33:08.987Z,101135.13
2018-07-01T16:35:37.274Z,101129.46
2018-07-01T16:38:06.222Z,101129.34
2018-07-01T16:40:34.442Z,101129.30
2018-07-01T16:43:02.674Z,101128.69
2018-07-01T16:45:30.797Z,101133.09
2018-07-01T16:47:59.115Z,101137.34
2018-07-01T16:50:27.489Z,101147.83
2018-07-01T16:52:55.918Z,101132.53
2018-07-01T16:55:24.129Z,101131.20
2018-07-01T16:57:52.387Z,101138.13
2018-07-01T17:00:20.720Z,101138.00
2018-07-01T17:02:49.045Z,101130.59
2018-07-01T17:05:17.368Z,101126.62
2018-07-01T17:07:45.681Z,101138.48
2018-07-01T17:10:14.776Z,101141.21
2018-07-01T17:12:43.091Z,101140.47
2018-07-01T17:15:11.423Z,101140.91
2018-07-01T17:17:39.804Z,101140.64
2018-07-01T17:20:08.098Z,101133.58
2018-07-01T17:22:36.671Z,101136.79
2018-07-01T17:25:05.007Z,101140.53
2018-07-01T17:27:33.135Z,101142.80
2018-07-01T17:30:01.620Z,101145.27
2018-07-01T17:32:35.524Z,101139.95
2018-07-01T17:35:04.028Z,101140.05
2018-07-01T17:37:32.417Z,101147.13
2018-07-01T17:40:00.795Z,101144.52
2018-07-01T17:42:28.952Z,101141.52
2018-07-01T17:44:57.300Z,101146.45
2018-07-01T17:47:25.516Z,101141.86
2018-07-01T17:49:53.851Z,101142.17
2018-07-01T17:52:22.221Z,101143.20
2018-07-01T17:54:50.513Z,101141.17
2018-07-01T17:57:18.667Z,101138.31
2018-07-01T17:59:46.848Z,101152.16
2018-07-01T18:02:15.078Z,101145.33
2018-07-01T18:04:43.335Z,101137.01
2018-07-01T18:07:11.509Z,101150.23
2018-07-01T18:09:39.664Z,101141.36
2018-07-01T18:12:08.108Z,101141.77
2018-07-01T18:14:36.799Z,101139.13
2018-07-01T18:17:05.028Z,101137.01
2018-07-01T18:19:33.331Z,101138.63
2018-07-01T18:22:27.956Z,101137.76
2018-07-01T18:24:53.954Z,101139.94
2018-07-01T18:26:58.750Z,101141.02
2018-07-01T18:29:26.987Z,101139.02
2018-07-01T18:31:55.470Z,101138.77
2018-07-01T18:34:23.630Z,101136.02
2018-07-01T18:36:51.790Z,101139.56
2018-07-01T18:39:19.943Z,101133.73
2018-07-01T18:41:48.155Z,101144.14
2018-07-01T18:44:17.345Z,101143.77
2018-07-01T18:46:45.622Z,101143.84
2018-07-01T18:49:13.856Z,101140.38
2018-07-01T18:51:42.075Z,101138.90
2018-07-01T18:54:10.613Z,101126.08
2018-07-01T18:56:38.859Z,101130.75
2018-07-01T18:59:07.098Z,101128.64
2018-07-01T19:01:35.311Z,101125.16
2018-07-01T19:04:03.564Z,101133.14
2018-07-01T19:06:31.727Z,101134.41
2018-07-01T19:08:59.882Z,101140.48
2018-07-01T19:11:28.099Z,101134.84
2018-07-01T19:13:56.316Z,101136.17
2018-07-01T19:16:24.541Z,101138.30
2018-07-01T19:18:52.770Z,101138.00
2018-07-01T19:21:21.034Z,101138.64
2018-07-01T19:23:49.698Z,101138.34
2018-07-01T19:26:17.922Z,101137.28
2018-07-01T19:28:46.120Z,101135.25
2018-07-01T19:31:14.294Z,101129.80
2018-07-01T19:33:42.483Z,101131.48
2018-07-01T19:36:11.016Z,101129.80
2018-07-01T19:38:39.175Z,101141.72
2018-07-01T19:41:07.432Z,101140.84
2018-07-01T19:43:36.432Z,101141.91
2018-07-01T19:46:04.670Z,101140.70
2018-07-01T19:48:33.035Z,101140.88
2018-07-01T19:51:01.283Z,101142.54
2018-07-01T19:53:29.444Z,101146.95
2018-07-01T19:55:57.641Z,101147.00
2018-07-01T19:58:25.895Z,101158.14
2018-07-01T20:00:53.984Z,101160.23
2018-07-01T20:03:22.304Z,101165.56
2018-07-01T20:05:50.803Z,101163.74
2018-07-01T20:08:19.073Z,101170.81
2018-07-01T20:10:47.299Z,101167.95
2018-07-01T20:13:16.299Z,101174.29
2018-07-01T20:15:44.530Z,101178.75
2018-07-01T20:18:12.716Z,101180.81
2018-07-01T20:20:40.836Z,101179.34
2018-07-01T20:23:08.982Z,101183.81
2018-07-01T20:25:38.013Z,101187.44
2018-07-01T20:28:06.256Z,101188.19
2018-07-01T20:30:34.457Z,101188.27
2018-07-01T20:33:02.678Z,101184.91
2018-07-01T20:35:30.980Z,101188.70
2018-07-01T20:37:59.375Z,101198.92
2018-07-01T20:40:27.577Z,101201.12
2018-07-01T20:42:55.773Z,101205.08
2018-07-01T20:45:23.951Z,101203.27
2018-07-01T20:47:52.674Z,101208.94
2018-07-01T20:50:20.936Z,101209.45
2018-07-01T20:52:49.377Z,101214.30
2018-07-01T20:55:17.668Z,101214.97
2018-07-01T20:57:45.842Z,101210.35
2018-07-01T21:00:14.125Z,101216.37
2018-07-01T21:02:42.247Z,101215.06
2018-07-01T21:05:10.425Z,101218.16
2018-07-01T21:07:38.523Z,101208.92
2018-07-01T21:10:06.655Z,101211.31
2018-07-01T21:12:34.867Z,101210.88
2018-07-01T21:15:03.057Z,101212.45
2018-07-01T21:17:31.375Z,101214.09
2018-07-01T21:19:59.597Z,101216.55
2018-07-01T21:22:27.837Z,101222.99
2018-07-01T21:24:56.042Z,101221.67
2018-07-01T21:27:24.441Z,101223.08
2018-07-01T21:29:52.665Z,101221.10
2018-07-01T21:32:20.896Z,101227.29
2018-07-01T21:34:49.284Z,101229.92
2018-07-01T21:37:17.642Z,101227.59
2018-07-01T21:39:45.872Z,101236.11
2018-07-01T21:42:14.042Z,101231.66
2018-07-01T21:44:42.355Z,101238.38
2018-07-01T21:47:10.613Z,101240.98
2018-07-01T21:49:38.950Z,101239.98
2018-07-01T21:52:07.298Z,101238.22
2018-07-01T21:54:35.581Z,101234.79
2018-07-01T21:57:03.876Z,101236.80
2018-07-01T21:59:32.090Z,101232.00
2018-07-01T22:02:00.245Z,101229.81
2018-07-01T22:04:28.379Z,101234.91
2018-07-01T22:06:59.869Z,101235.38
2018-07-01T22:09:28.882Z,101239.63
2018-07-01T22:12:13.916Z,101238.98
2018-07-01T22:14:59.380Z,101238.83
2018-07-01T22:17:28.494Z,101239.56
2018-07-01T22:19:57.058Z,101234.17
2018-07-01T22:22:25.253Z,101237.20
2018-07-01T22:24:53.508Z,101241.23
2018-07-01T22:27:21.753Z,101240.15
2018-07-01T22:29:49.979Z,101247.88
2018-07-01T22:32:18.066Z,101245.58
2018-07-01T22:34:46.274Z,101248.35
2018-07-01T22:37:15.243Z,101239.05
2018-07-01T22:39:43.439Z,101238.22
2018-07-01T22:42:11.724Z,101240.52
2018-07-01T22:44:39.947Z,101242.30
2018-07-01T22:47:08.106Z,101245.12
2018-07-01T22:49:36.325Z,101244.59
2018-07-01T22:52:04.533Z,101239.41
2018-07-01T22:54:32.673Z,101242.53
2018-07-01T22:57:00.913Z,101241.81
2018-07-01T22:59:30.084Z,101239.72
2018-07-01T23:03:16.793Z,101240.24
2018-07-01T23:05:44.886Z,101242.03
2018-07-01T23:08:13.053Z,101246.46
2018-07-01T23:10:41.339Z,101241.91
2018-07-01T23:13:09.574Z,101241.36
2018-07-01T23:15:37.780Z,101246.15
2018-07-01T23:18:05.918Z,101241.67
2018-07-01T23:20:34.025Z,101243.33
2018-07-01T23:23:02.238Z,101238.41
2018-07-01T23:25:30.473Z,101233.39
2018-07-01T23:27:59.191Z,101231.91
2018-07-01T23:30:27.405Z,101225.66
2018-07-01T23:32:55.533Z,101225.76
2018-07-01T23:35:23.694Z,101226.31
2018-07-01T23:37:52.315Z,101218.70
2018-07-01T23:40:20.438Z,101216.16
2018-07-01T23:42:48.647Z,101214.17
2018-07-01T23:45:16.850Z,101211.50
2018-07-01T23:47:45.063Z,101205.89
2018-07-01T23:50:13.303Z,101212.47
2018-07-01T23:52:41.511Z,101211.54
2018-07-01T23:55:09.996Z,101207.68
2018-07-01T23:57:38.215Z,101205.75
